Time;durP1;ratioP1;P1;durP2;ratioP2;P2;SDS_P1;SDS_P2;PMS_P1;PMS_P2;Temp;Humidity;BMP_temperature;BMP_pressure;BME280_temperature;BME280_humidity;BME280_pressure;Samples;Min_cycle;Max_cycle;Signal;HPM_P1;HPM_P2
2023/11/04 06:57:53;;;;;;;20.80;7.60;;;;;;;8.18;69.73;97338.84;107950;1259;96529;-76
2023/11/04 07:00:20;;;;;;;22.70;8.60;;;;;;;8.19;69.77;97338.70;107339;1243;96622;-76
2023/11/04 07:02:47;;;;;;;53.40;23.50;;;;;;;8.22;69.85;97341.69;108775;1245;96685;-79
2023/11/04 07:05:20;;;;;;;42.90;19.00;;;;;;;8.26;69.84;97353.48;108741;1235;96583;-78
2023/11/04 07:07:59;;;;;;;49.10;21.30;;;;;;;8.28;69.89;97358.77;108544;1236;108738;-77
2023/11/04 07:10:28;;;;;;;51.60;22.20;;;;;;;8.39;70.02;97365.73;108688;1235;96628;-77
2023/11/04 07:13:10;;;;;;;44.40;19.90;;;;;;;8.50;70.19;97373.09;108623;1236;107245;-78
2023/11/04 07:15:51;;;;;;;38.10;18.10;;;;;;;8.55;70.03;97378.80;108591;1231;96625;-78
2023/11/04 07:18:19;;;;;;;35.40;18.20;;;;;;;8.58;70.24;97391.57;108460;1241;96592;-77
2023/11/04 07:20:47;;;;;;;31.40;15.00;;;;;;;8.68;70.30;97394.48;108827;1235;108963;-77
2023/11/04 07:23:15;;;;;;;29.60;14.10;;;;;;;8.79;70.25;97392.55;109143;1236;96638;-77
2023/11/04 07:25:42;;;;;;;26.80;12.60;;;;;;;8.86;70.28;97387.77;108230;1236;107485;-80
2023/11/04 07:28:24;;;;;;;28.70;13.30;;;;;;;8.89;70.24;97379.58;108660;1242;96614;-77
2023/11/04 07:30:52;;;;;;;27.10;13.10;;;;;;;8.91;70.28;97383.30;108294;1238;96692;-77
2023/11/04 07:33:21;;;;;;;29.00;13.50;;;;;;;8.95;70.51;97396.70;108485;1235;96777;-77
2023/11/04 07:35:48;;;;;;;27.80;12.60;;;;;;;9.04;70.46;97403.34;108636;1234;96557;-77
2023/11/04 07:38:26;;;;;;;23.80;12.10;;;;;;;9.15;70.56;97398.58;108654;1234;96555;-78
2023/11/04 07:41:01;;;;;;;22.20;9.60;;;;;;;9.28;70.58;97392.12;108313;1239;96653;-77
2023/11/04 07:43:32;;;;;;;20.90;9.50;;;;;;;9.33;70.67;97393.02;108570;1234;97706;-76
2023/11/04 07:46:01;;;;;;;22.60;9.00;;;;;;;9.39;70.58;97392.80;108523;1236;109418;-77
2023/11/04 07:48:28;;;;;;;21.30;9.60;;;;;;;9.43;70.58;97391.44;108503;1233;96565;-78
2023/11/04 07:50:55;;;;;;;22.30;8.90;;;;;;;9.48;70.72;97388.80;108476;1235;96487;-78
2023/11/04 07:53:21;;;;;;;23.00;9.50;;;;;;;9.54;70.70;97381.35;108557;1241;96569;-76
2023/11/04 07:55:48;;;;;;;19.00;7.20;;;;;;;9.63;70.60;97376.41;108446;1234;97848;-78
2023/11/04 07:58:18;;;;;;;14.80;5.60;;;;;;;9.73;70.45;97386.79;108396;1238;96566;-79
2023/11/04 08:00:45;;;;;;;10.90;3.80;;;;;;;9.79;70.24;97398.20;108509;1236;97457;-78
2023/11/04 08:03:16;;;;;;;6.70;2.80;;;;;;;9.86;70.29;97407.88;108216;1231;107550;-77
2023/11/04 08:05:43;;;;;;;7.40;3.20;;;;;;;9.91;70.37;97414.09;108636;1243;97489;-82
2023/11/04 08:08:31;;;;;;;9.10;3.90;;;;;;;9.95;70.39;97417.78;108455;1230;96585;-77
2023/11/04 08:10:57;;;;;;;11.00;3.40;;;;;;;10.01;70.40;97418.96;108375;1231;109588;-76
2023/11/04 08:13:24;;;;;;;6.50;2.70;;;;;;;10.07;70.42;97419.30;108019;1244;96636;-76
2023/11/04 08:15:53;;;;;;;6.10;2.50;;;;;;;10.12;70.33;97417.61;108211;1245;96554;-77
2023/11/04 08:18:31;;;;;;;5.40;2.20;;;;;;;10.20;70.29;97413.08;108520;1235;96746;-79
2023/11/04 08:21:00;;;;;;;6.70;2.40;;;;;;;10.31;70.32;97410.43;108292;1236;96565;-79
2023/11/04 08:23:27;;;;;;;4.60;2.00;;;;;;;10.38;70.34;97403.86;108598;1234;109210;-79
2023/11/04 08:25:54;;;;;;;7.60;2.10;;;;;;;10.44;70.23;97402.83;108312;1243;96573;-78
2023/11/04 08:28:42;;;;;;;5.00;1.90;;;;;;;10.47;70.14;97396.52;108324;1235;96684;-76
2023/11/04 08:31:28;;;;;;;3.20;1.60;;;;;;;10.57;70.09;97396.95;108324;1237;96679;-77
2023/11/04 08:33:58;;;;;;;3.10;1.80;;;;;;;10.66;70.14;97397.61;108386;1235;96486;-76
2023/11/04 08:36:25;;;;;;;3.60;1.50;;;;;;;10.76;70.17;97388.68;108304;1235;109867;-77
2023/11/04 08:38:52;;;;;;;2.40;1.50;;;;;;;10.86;70.11;97385.67;108354;1237;96644;-75
2023/11/04 08:41:30;;;;;;;5.10;1.60;;;;;;;10.81;69.71;97390.65;108819;1235;96541;-80
2023/11/04 08:43:57;;;;;;;2.90;1.10;;;;;;;10.76;69.75;97383.90;108456;1243;96689;-76
2023/11/04 08:46:27;;;;;;;2.80;0.90;;;;;;;10.76;69.60;97379.62;108803;1234;96572;-77
2023/11/04 08:48:53;;;;;;;1.50;1.10;;;;;;;10.76;69.63;97375.73;108446;1231;110389;-76
2023/11/04 08:51:23;;;;;;;3.60;1.30;;;;;;;10.79;69.63;97379.73;111698;1230;95344;-78
2023/11/04 08:53:51;;;;;;;3.80;1.60;;;;;;;10.85;69.48;97381.32;108963;1236;107482;-76
2023/11/04 08:56:19;;;;;;;2.50;1.60;;;;;;;10.94;69.56;97383.83;108703;1235;96634;-77
2023/11/04 08:58:53;;;;;;;4.60;2.50;;;;;;;10.98;69.37;97381.02;108247;1245;96614;-75
2023/11/04 09:01:25;;;;;;;23.30;10.00;;;;;;;11.02;69.29;97381.83;108580;1232;110093;-75
2023/11/04 09:03:55;;;;;;;23.40;8.30;;;;;;;11.04;69.34;97379.02;108552;1245;96586;-76
2023/11/04 09:06:31;;;;;;;7.70;3.10;;;;;;;10.99;69.37;97385.17;108563;1236;107381;-76
2023/11/04 09:09:01;;;;;;;5.20;2.60;;;;;;;10.88;69.27;97376.52;108577;1243;96474;-75
2023/11/04 09:11:46;;;;;;;5.60;2.50;;;;;;;10.74;69.08;97375.25;108598;1237;96666;-77
2023/11/04 09:14:20;;;;;;;7.40;2.30;;;;;;;10.69;68.95;97378.36;108323;1243;109636;-82
2023/11/04 09:16:48;;;;;;;4.00;1.90;;;;;;;10.67;69.05;97375.52;108372;1235;96688;-81
2023/11/04 09:19:15;;;;;;;4.30;1.30;;;;;;;10.63;68.89;97378.45;108563;1236;106239;-75
2023/11/04 09:21:42;;;;;;;3.50;1.90;;;;;;;10.61;68.91;97374.38;108585;1242;97795;-76
2023/11/04 09:24:09;;;;;;;13.10;4.00;;;;;;;10.63;68.85;97373.82;108609;1239;97473;-81
2023/11/04 09:26:37;;;;;;;15.20;4.60;;;;;;;10.70;68.90;97372.56;108680;1234;109949;-77
2023/11/04 09:29:04;;;;;;;9.80;3.40;;;;;;;10.77;68.86;97360.41;108248;1238;96624;-77
2023/11/04 09:31:32;;;;;;;4.30;1.70;;;;;;;10.82;68.84;97352.73;108720;1231;96630;-82
2023/11/04 09:34:07;;;;;;;3.40;1.40;;;;;;;10.82;68.60;97350.30;108611;1238;97490;-79
2023/11/04 09:36:35;;;;;;;3.30;1.30;;;;;;;10.79;68.69;97352.08;108460;1236;96566;-80
2023/11/04 09:39:15;;;;;;;;;;;;;;;;;;;;;
2023/11/04 09:41:42;;;;;;;3.20;1.20;;;;;;;10.85;68.43;97352.45;111558;1230;95344;-75
2023/11/04 09:44:10;;;;;;;5.30;2.20;;;;;;;10.87;68.37;97351.20;111711;1230;94221;-75
2023/11/04 09:46:37;;;;;;;4.60;1.70;;;;;;;10.93;68.43;97346.21;111668;1234;94659;-76
2023/11/04 09:49:04;;;;;;;3.50;1.70;;;;;;;10.99;68.35;97346.09;111750;1231;94223;-75
2023/11/04 09:51:36;;;;;;;2.00;1.40;;;;;;;11.05;68.39;97348.68;111491;1232;110974;-76
2023/11/04 09:54:07;;;;;;;4.00;1.30;;;;;;;11.06;68.18;97347.90;111510;1231;96184;-75
2023/11/04 09:56:38;;;;;;;2.10;1.50;;;;;;;11.01;67.93;97345.13;111857;1232;107392;-80
2023/11/04 09:59:07;;;;;;;4.30;2.10;;;;;;;11.10;68.12;97343.92;111619;1230;94261;-76
2023/11/04 10:01:34;;;;;;;4.40;1.30;;;;;;;11.28;67.98;97340.33;111699;1232;94538;-76
2023/11/04 10:04:01;;;;;;;3.50;1.80;;;;;;;11.44;68.02;97338.70;111703;1231;94573;-77
2023/11/04 10:06:29;;;;;;;4.10;1.30;;;;;;;11.56;67.81;97344.89;111710;1230;94261;-79
2023/11/04 10:09:00;;;;;;;2.10;1.00;;;;;;;11.57;67.61;97345.48;111501;1230;107463;-76
2023/11/04 10:11:28;;;;;;;3.00;1.30;;;;;;;11.65;67.57;97348.54;111649;1232;94198;-77
2023/11/04 10:13:56;;;;;;;2.00;1.10;;;;;;;11.75;67.65;97350.58;111828;1230;94187;-76
2023/11/04 10:16:23;;;;;;;2.50;1.40;;;;;;;11.91;67.69;97351.95;111452;1229;109731;-76
2023/11/04 10:18:49;;;;;;;3.90;2.00;;;;;;;12.03;67.62;97352.77;111713;1230;94230;-76
2023/11/04 10:21:18;;;;;;;3.00;1.30;;;;;;;12.10;67.42;97357.59;111554;1230;94753;-72
2023/11/04 10:23:45;;;;;;;2.40;1.20;;;;;;;12.13;67.40;97355.14;111688;1230;94150;-83
2023/11/04 10:26:15;;;;;;;3.60;1.20;;;;;;;12.12;67.36;97354.42;111704;1232;94456;-75
2023/11/04 10:28:42;;;;;;;3.60;1.50;;;;;;;12.13;67.36;97344.98;111794;1231;111020;-76
2023/11/04 10:31:13;;;;;;;4.00;1.40;;;;;;;12.15;67.36;97343.52;111932;1233;94556;-76
2023/11/04 10:33:45;;;;;;;3.60;1.30;;;;;;;12.20;67.22;97346.43;111548;1230;107091;-76
2023/11/04 10:36:14;;;;;;;3.90;1.40;;;;;;;12.22;67.22;97339.29;111778;1231;94176;-79
2023/11/04 10:38:44;;;;;;;6.30;1.70;;;;;;;12.27;67.15;97328.06;111511;1232;94191;-74
2023/11/04 10:41:17;;;;;;;3.40;1.60;;;;;;;12.34;67.07;97325.92;111602;1231;110238;-80
2023/11/04 10:43:58;;;;;;;6.80;2.60;;;;;;;12.40;67.06;97317.45;111828;1231;94736;-75
2023/11/04 10:47:17;;;;;;;4.20;2.10;;;;;;;12.40;66.92;97313.21;111622;1232;108369;-76
2023/11/04 10:50:06;;;;;;;7.40;2.60;;;;;;;12.43;66.93;97301.84;111810;1230;94188;-75
2023/11/04 10:52:53;;;;;;;8.30;2.80;;;;;;;12.43;66.83;97299.02;111828;1231;94233;-73
2023/11/04 10:55:27;;;;;;;6.60;2.60;;;;;;;12.48;66.77;97303.74;111842;1232;109384;-75
2023/11/04 10:58:03;;;;;;;;;;;;;;;12.57;66.78;97301.02;111835;1231;95234;-74
2023/11/04 11:03:44;;;;;;;8.50;2.90;;;;;;;12.64;66.57;97290.80;102012;1295;636345;-75
2023/11/04 11:06:14;;;;;;;6.70;2.80;;;;;;;12.66;66.49;97292.59;105022;1263;94255;-76
2023/11/04 11:08:43;;;;;;;10.20;3.10;;;;;;;12.73;66.62;97287.79;105056;1261;94314;-75
2023/11/04 11:11:27;;;;;;;5.90;2.60;;;;;;;12.77;66.53;97284.58;104812;1262;504696;-77
2023/11/04 11:13:57;;;;;;;8.10;3.40;;;;;;;12.78;66.37;97284.28;104668;1267;94730;-79
2023/11/04 11:16:25;;;;;;;4.10;2.10;;;;;;;12.79;66.21;97283.02;104620;1276;319631;-76
2023/11/04 11:18:56;;;;;;;7.10;2.80;;;;;;;12.79;66.27;97273.33;104923;1264;94217;-76
2023/11/04 11:21:24;;;;;;;7.00;2.10;;;;;;;12.80;66.31;97265.23;104858;1273;95126;-77
2023/11/04 11:23:52;;;;;;;3.30;1.80;;;;;;;12.70;66.13;97262.44;105019;1260;105688;-76
2023/11/04 11:26:20;;;;;;;3.90;2.30;;;;;;;12.65;66.09;97261.70;104953;1261;95360;-74
2023/11/04 11:28:50;;;;;;;4.10;1.90;;;;;;;12.61;65.95;97257.39;105019;1264;105532;-76
2023/11/04 11:31:27;;;;;;;4.90;2.20;;;;;;;12.60;65.98;97253.97;104986;1264;96205;-79
2023/11/04 11:34:07;;;;;;;6.40;2.20;;;;;;;12.60;65.83;97242.27;104794;1264;95199;-76
2023/11/04 11:36:36;;;;;;;4.20;2.00;;;;;;;12.59;65.95;97230.63;104848;1273;108568;-76
2023/11/04 11:39:06;;;;;;;8.70;2.20;;;;;;;12.61;65.80;97222.83;105251;1270;95433;-77
2023/11/04 11:41:39;;;;;;;3.40;1.60;;;;;;;12.64;65.75;97217.73;105135;1263;106568;-76
2023/11/04 11:44:08;;;;;;;5.80;2.00;;;;;;;12.65;65.60;97216.74;104958;1274;95211;-75
2023/11/04 11:46:36;;;;;;;6.40;2.20;;;;;;;12.60;65.68;97219.06;104940;1260;95308;-75
2023/11/04 11:49:05;;;;;;;5.20;2.60;;;;;;;12.63;65.63;97219.11;105076;1263;108002;-75
2023/11/04 11:51:33;;;;;;;6.10;2.10;;;;;;;12.65;65.51;97218.74;104917;1264;95527;-75
2023/11/04 11:54:02;;;;;;;6.30;2.10;;;;;;;12.58;65.56;97216.66;104881;1273;107663;-75
2023/11/04 11:56:30;;;;;;;5.40;2.00;;;;;;;12.56;65.41;97204.59;105035;1264;95371;-79
2023/11/04 11:59:05;;;;;;;7.80;2.60;;;;;;;12.54;65.40;97207.54;105182;1270;95478;-75
2023/11/04 12:01:33;;;;;;;6.70;2.70;;;;;;;12.52;65.28;97208.73;105192;1260;108653;-74
2023/11/04 12:04:05;;;;;;;8.10;3.20;;;;;;;12.46;65.27;97209.38;104957;1270;96274;-77
2023/11/04 12:06:36;;;;;;;9.40;3.50;;;;;;;12.44;65.26;97213.38;104989;1264;107725;-74
2023/11/04 12:09:06;;;;;;;9.60;3.40;;;;;;;12.44;65.30;97213.36;105173;1257;95236;-74
2023/11/04 12:11:35;;;;;;;10.00;3.60;;;;;;;12.46;65.12;97219.34;105351;1259;95257;-78
2023/11/04 12:14:04;;;;;;;6.70;2.60;;;;;;;12.46;65.06;97211.35;105240;1257;108222;-78
2023/11/04 12:16:33;;;;;;;6.90;2.10;;;;;;;12.44;65.15;97200.95;105445;1260;96155;-77
2023/11/04 12:19:01;;;;;;;7.70;2.20;;;;;;;12.44;64.94;97184.02;105253;1266;108356;-77
2023/11/04 12:21:48;;;;;;;8.60;2.80;;;;;;;12.47;65.07;97174.51;105038;1257;95394;-76
2023/11/04 12:24:17;;;;;;;6.90;2.70;;;;;;;12.47;65.04;97179.23;105096;1259;95241;-76
2023/11/04 12:26:45;;;;;;;6.60;2.50;;;;;;;12.53;65.01;97174.90;105277;1256;108479;-77
2023/11/04 12:29:13;;;;;;;5.90;3.30;;;;;;;12.55;65.01;97173.20;105349;1256;96174;-75
2023/11/04 12:31:41;;;;;;;4.50;2.50;;;;;;;12.58;64.94;97168.79;105043;1261;107308;-77
2023/11/04 12:34:10;;;;;;;8.70;3.00;;;;;;;12.55;64.89;97167.70;105259;1256;95211;-77
2023/11/04 12:36:41;;;;;;;7.80;2.70;;;;;;;12.54;64.90;97169.46;105269;1270;95238;-77
2023/11/04 12:39:09;;;;;;;8.50;3.30;;;;;;;12.54;64.89;97165.56;105296;1259;108483;-76
2023/11/04 12:41:38;;;;;;;11.10;3.60;;;;;;;12.55;64.83;97168.33;105254;1255;96064;-77
2023/11/04 12:44:07;;;;;;;5.00;2.40;;;;;;;12.55;64.81;97162.56;105300;1261;107237;-75
2023/11/04 12:46:36;;;;;;;9.60;3.60;;;;;;;12.54;64.74;97157.60;105240;1260;95335;-76
2023/11/04 12:49:10;;;;;;;9.30;2.90;;;;;;;12.51;64.82;97162.30;105202;1276;95164;-81
2023/11/04 12:51:38;;;;;;;14.50;5.80;;;;;;;12.50;64.69;97160.20;105422;1260;108213;-78
2023/11/04 12:54:06;;;;;;;11.40;4.40;;;;;;;12.45;64.64;97161.59;105424;1259;95397;-77
2023/11/04 12:56:34;;;;;;;19.50;9.70;;;;;;;12.27;64.51;97164.39;105072;1261;107544;-77
2023/11/04 12:59:05;;;;;;;18.60;7.40;;;;;;;12.19;64.49;97164.98;105048;1260;95349;-75
2023/11/04 13:01:33;;;;;;;12.00;5.00;;;;;;;12.22;64.56;97157.91;105256;1256;95228;-77
2023/11/04 13:04:19;;;;;;;11.60;4.50;;;;;;;12.26;64.60;97161.86;105105;1261;107913;-74
2023/11/04 13:06:49;;;;;;;10.30;3.90;;;;;;;12.17;64.28;97164.81;105587;1259;95176;-79
2023/11/04 13:09:18;;;;;;;17.60;5.00;;;;;;;12.06;64.40;97163.34;105300;1278;107711;-75
2023/11/04 13:11:46;;;;;;;14.30;4.30;;;;;;;12.01;64.36;97154.55;105349;1259;95242;-75
2023/11/04 13:14:14;;;;;;;10.80;3.90;;;;;;;11.96;64.27;97154.97;105279;1259;95157;-74
2023/11/04 13:16:42;;;;;;;13.60;4.10;;;;;;;11.92;64.24;97150.38;105363;1254;108331;-74
2023/11/04 13:19:10;;;;;;;9.40;3.60;;;;;;;11.89;64.16;97145.58;105450;1254;95691;-76
2023/11/04 13:21:39;;;;;;;11.10;3.60;;;;;;;11.90;64.20;97143.35;105395;1254;108296;-76
2023/11/04 13:24:07;;;;;;;9.70;3.90;;;;;;;11.90;64.20;97143.81;105216;1260;95323;-75
2023/11/04 13:26:35;;;;;;;12.60;4.30;;;;;;;11.90;64.07;97144.05;105239;1254;95243;-75
2023/11/04 13:29:03;;;;;;;10.20;3.70;;;;;;;11.88;64.14;97137.89;105348;1254;107687;-75
2023/11/04 13:31:31;;;;;;;11.30;3.90;;;;;;;11.88;64.07;97140.89;105338;1256;95439;-75
2023/11/04 13:33:59;;;;;;;11.80;4.20;;;;;;;11.91;64.01;97139.16;105149;1260;107599;-76
2023/11/04 13:36:30;;;;;;;11.30;4.10;;;;;;;11.92;64.06;97136.19;105385;1260;95240;-77
2023/11/04 13:38:58;;;;;;;12.20;4.20;;;;;;;11.89;63.99;97131.40;105338;1256;95361;-76
2023/11/04 13:41:37;;;;;;;13.10;4.20;;;;;;;11.84;63.94;97131.77;105399;1254;108491;-76
2023/11/04 13:44:07;;;;;;;17.80;5.30;;;;;;;11.77;63.90;97131.44;105515;1258;95992;-75
2023/11/04 13:46:35;;;;;;;15.00;4.20;;;;;;;11.71;63.96;97132.77;105464;1254;107527;-74
2023/11/04 13:49:03;;;;;;;14.40;4.90;;;;;;;11.69;63.94;97130.67;105393;1260;95271;-75
2023/11/04 13:51:35;;;;;;;15.20;5.10;;;;;;;11.71;63.91;97127.98;105330;1256;95246;-76
2023/11/04 13:54:04;;;;;;;14.40;4.90;;;;;;;11.67;63.79;97122.91;105381;1254;108075;-76
2023/11/04 13:56:32;;;;;;;14.30;4.60;;;;;;;11.68;64.00;97121.21;105246;1260;95594;-76
2023/11/04 13:59:02;;;;;;;15.50;5.30;;;;;;;11.72;63.92;97121.11;105415;1260;107653;-78
2023/11/04 14:01:36;;;;;;;17.50;5.90;;;;;;;11.77;63.98;97123.95;105130;1270;95224;-76
2023/11/04 14:04:04;;;;;;;15.80;5.20;;;;;;;11.80;64.07;97127.20;105235;1259;95176;-76
2023/11/04 14:06:32;;;;;;;13.10;5.10;;;;;;;11.78;63.96;97127.61;104975;1264;108419;-76
2023/11/04 14:09:00;;;;;;;12.20;4.80;;;;;;;11.71;63.86;97127.94;105307;1256;95451;-79
2023/11/04 14:11:36;;;;;;;14.60;5.30;;;;;;;11.66;63.93;97127.96;105329;1254;107205;-77
2023/11/04 14:14:04;;;;;;;13.50;5.00;;;;;;;11.67;63.98;97124.20;105120;1259;95262;-76
2023/11/04 14:16:32;;;;;;;12.80;5.10;;;;;;;11.65;64.03;97119.61;105152;1254;96082;-76
2023/11/04 14:19:00;;;;;;;12.80;4.40;;;;;;;11.61;63.94;97120.48;105312;1261;107358;-77
2023/11/04 14:21:29;;;;;;;13.20;4.50;;;;;;;11.57;63.98;97117.56;105451;1259;95736;-76
2023/11/04 14:23:59;;;;;;;11.50;3.90;;;;;;;11.55;63.93;97119.72;105147;1259;107433;-76
2023/11/04 14:26:27;;;;;;;10.90;4.10;;;;;;;11.51;64.03;97124.24;105333;1268;95256;-76
2023/11/04 14:28:56;;;;;;;11.70;4.00;;;;;;;11.46;63.91;97126.36;105419;1256;96178;-75
2023/11/04 14:31:25;;;;;;;12.60;4.50;;;;;;;11.40;64.05;97125.96;105374;1254;109296;-77
2023/11/04 14:33:52;;;;;;;13.70;4.70;;;;;;;11.34;63.92;97125.36;105381;1254;95293;-75
2023/11/04 14:36:20;;;;;;;16.30;5.50;;;;;;;11.31;63.98;97122.60;105080;1270;107627;-80
2023/11/04 14:38:48;;;;;;;13.90;4.60;;;;;;;11.30;64.11;97120.40;105079;1261;95238;-78
2023/11/04 14:41:17;;;;;;;20.50;5.80;;;;;;;11.31;64.09;97122.70;105317;1260;95269;-79
2023/11/04 14:43:44;;;;;;;14.60;4.40;;;;;;;11.31;64.09;97120.50;105449;1254;108523;-81
2023/11/04 14:46:17;;;;;;;11.50;4.20;;;;;;;11.29;64.09;97113.36;105140;1260;95607;-79
2023/11/04 14:48:45;;;;;;;13.80;4.40;;;;;;;11.27;64.04;97112.84;105329;1255;108406;-80
2023/11/04 14:51:13;;;;;;;17.10;4.80;;;;;;;11.16;64.02;97116.21;105000;1257;95294;-79
2023/11/04 14:53:41;;;;;;;14.80;4.20;;;;;;;11.10;64.08;97120.43;105427;1258;95356;-81
2023/11/04 14:56:09;;;;;;;13.60;4.60;;;;;;;11.10;64.18;97123.42;105465;1259;109145;-78
2023/11/04 14:58:38;;;;;;;13.40;4.80;;;;;;;11.12;64.18;97125.55;105382;1260;95688;-80
2023/11/04 15:01:08;;;;;;;20.30;7.60;;;;;;;11.14;64.19;97124.29;105153;1260;106168;-79
2023/11/04 15:03:40;;;;;;;45.30;21.70;;;;;;;11.14;64.22;97118.41;105086;1255;95259;-78
2023/11/04 15:06:08;;;;;;;23.50;8.40;;;;;;;11.13;64.17;97112.81;105456;1260;96053;-78
2023/11/04 15:08:36;;;;;;;24.00;8.70;;;;;;;11.09;64.25;97105.75;105019;1254;108170;-79
2023/11/04 15:11:04;;;;;;;19.00;7.40;;;;;;;11.01;64.13;97103.05;105179;1260;95612;-77
2023/11/04 15:13:32;;;;;;;22.40;7.50;;;;;;;10.97;64.25;97100.19;105313;1257;107622;-79
2023/11/04 15:16:00;;;;;;;21.50;7.40;;;;;;;10.94;64.30;97097.11;105324;1254;97839;-77
2023/11/04 15:18:28;;;;;;;21.00;6.00;;;;;;;10.94;64.34;97092.20;105273;1259;96553;-78
2023/11/04 15:21:48;;;;;;;;;;;;;;;;;;;;;
2023/11/04 15:24:47;;;;;;;;;;;;;;;;;;;;;
2023/11/04 15:28:26;;;;;;;;;;;;;;;;;;;;;
